Terminal Aerodrome Forecast
Issued by NWS

Current Version | Previous Version | Text Only | Print | Product List | Glossary Off
Versions: 1 2 3 4 5 6 7 8 9 10 11 12 13 14 15 16

000
FTUS41 KILN 211700
TAFLCK
TAF
KLCK 211736Z 2118/2218 12004KT P6SM SCT025 SCT250
     FM220400 10003KT P6SM SCT250
     FM221200 13006KT P6SM BKN030=

USA.gov is the U.S. government's official web portal to all federal, state and local government web resources and services.